This is the latest recevied weather packets stored in our database for station/object WX4SGA. If no packets are shown the sender has not sent any weather packets the latest 10 day(s).
| Time | Temp. | Humidity | Pressure | Rain* | Wind** | Luminosity | Snow |
|---|---|---|---|---|---|---|---|
| 1777901302 | 20.56° C | 64% | 1019.3 hPa | 0 mm | - | 350 W/m² | - |
| 1777901000 | 20.56° C | 68% | 1019.3 hPa | 0 mm | - | 334 W/m² | - |
| 1777900698 | 20° C | 67% | 1019.3 hPa | 0 mm | - | 311 W/m² | - |
| 1777900394 | 20° C | 65% | 1019 hPa | 0 mm | - | 297 W/m² | - |
| 1777900091 | 19.44° C | 70% | 1019.3 hPa | 0 mm | - | 278 W/m² | - |
| 1777899788 | 18.89° C | 70% | 1019.3 hPa | 0 mm | - | 262 W/m² | - |
| 1777899484 | 18.89° C | 70% | 1019.3 hPa | 0 mm | - | 244 W/m² | - |
| 1777899182 | 18.89° C | 69% | 1019.3 hPa | 0 mm | - | 227 W/m² | - |
| 1777898880 | 18.33° C | 71% | 1019.3 hPa | 0 mm | - | 208 W/m² | - |
| 1777898577 | 17.22° C | 76% | 1019.3 hPa | 0 mm | - | 192 W/m² | - |
| 1777898274 | 15.56° C | 80% | 1019.3 hPa | 0 mm | - | 176 W/m² | - |
| 1777897971 | 15.56° C | 79% | 1019.3 hPa | 0 mm | - | 154 W/m² | - |
| 1777897667 | 15.56° C | 79% | 1019.3 hPa | 0 mm | - | 134 W/m² | - |
| 1777897364 | 15° C | 79% | 1019.3 hPa | 0 mm | - | 98 W/m² | - |
| 1777897060 | 14.44° C | 83% | 1019 hPa | 0 mm | - | 77 W/m² | - |
| 1777896757 | 13.89° C | 83% | 1019.3 hPa | 0 mm | - | 65 W/m² | - |
| 1777896454 | 14.44° C | 82% | 1019.3 hPa | 0 mm | - | 58 W/m² | - |
| 1777896151 | 12.78° C | 87% | 1019 hPa | 0 mm | - | 53 W/m² | - |
| 1777895849 | 12.22° C | 89% | 1019 hPa | 0 mm | - | 48 W/m² | - |
| 1777895546 | 11.11° C | 95% | 1019 hPa | 0 mm | - | 46 W/m² | - |
| 1777895244 | 10° C | 94% | 1019 hPa | 0 mm | - | 42 W/m² | - |
| 1777894941 | 10° C | 96% | 1019 hPa | 0 mm | - | 38 W/m² | - |
| 1777894638 | 9.44° C | 98% | 1019 hPa | 0 mm | - | 34 W/m² | - |
| 1777894335 | 8.89° C | 98% | 1019 hPa | 0 mm | - | 23 W/m² | - |
| 1777894033 | 8.89° C | 98% | 1019 hPa | 0 mm | - | 19 W/m² | - |
* Rain latest hour (hover to see other rain measurements)
** Current wind speed in m/s (hover to see current wind gust speed)